Time;durP1;ratioP1;P1;durP2;ratioP2;P2;SDS_P1;SDS_P2;PMS_P1;PMS_P2;Temp;Humidity;BMP_temperature;BMP_pressure;BME280_temperature;BME280_humidity;BME280_pressure;Samples;Min_cycle;Max_cycle;Signal;HPM_P1;HPM_P2
2023/04/02 00:01:00;;;;;;;13.55;10.50;;;;;;;6.12;100.00;100947.13;5226704;28;20495;-65
2023/04/02 00:04:04;;;;;;;15.18;11.15;;;;;;;6.11;100.00;100946.28;5225193;28;20037;-65
2023/04/02 00:06:43;;;;;;;13.80;10.90;;;;;;;6.07;100.00;100942.94;5230630;28;20041;-66
2023/04/02 00:09:14;;;;;;;15.25;10.73;;;;;;;6.05;100.00;100955.41;5223052;28;21175;-66
2023/04/02 00:11:48;;;;;;;13.30;10.70;;;;;;;6.02;100.00;100952.09;5225085;28;20030;-66
2023/04/02 00:14:33;;;;;;;14.13;10.93;;;;;;;6.02;100.00;100957.38;5220777;28;20030;-66
2023/04/02 00:17:05;;;;;;;14.75;11.00;;;;;;;6.01;100.00;100959.19;5224941;28;20396;-66
2023/04/02 00:19:44;;;;;;;14.48;11.07;;;;;;;6.00;100.00;100967.22;5220440;28;20068;-65
2023/04/02 00:22:20;;;;;;;13.65;11.00;;;;;;;6.00;100.00;100967.22;5220318;28;20112;-65
2023/04/02 00:24:54;;;;;;;15.52;11.95;;;;;;;5.98;100.00;100972.59;5219278;28;20449;-65
2023/04/02 00:27:26;;;;;;;17.45;13.23;;;;;;;5.96;100.00;100977.13;5224970;28;20037;-65
2023/04/02 00:29:58;;;;;;;17.30;13.13;;;;;;;5.94;100.00;100978.97;5221464;28;20029;-65
2023/04/02 00:32:31;;;;;;;16.88;13.10;;;;;;;5.89;100.00;100981.88;5223284;28;20038;-65
2023/04/02 00:35:10;;;;;;;17.05;13.15;;;;;;;5.87;100.00;100975.81;5221367;28;20296;-65
2023/04/02 00:37:43;;;;;;;17.35;13.20;;;;;;;5.84;100.00;100991.84;5221619;28;20025;-65
2023/04/02 00:40:21;;;;;;;16.27;12.70;;;;;;;5.82;100.00;100991.09;5222333;28;20269;-65
2023/04/02 00:42:54;;;;;;;15.82;12.60;;;;;;;5.79;100.00;100998.34;5223214;28;20030;-66
2023/04/02 00:45:29;;;;;;;17.63;12.73;;;;;;;5.79;100.00;100999.22;5223771;28;20484;-65
2023/04/02 00:48:35;;;;;;;20.25;13.40;;;;;;;5.78;100.00;101007.22;5224800;28;20029;-65
2023/04/02 00:51:10;;;;;;;;;;;;;;;5.81;100.00;101004.41;5222390;28;20037;-65
2023/04/02 00:53:44;;;;;;;;;;;;;;;5.82;100.00;101012.25;5221629;28;19917;-65
2023/04/02 00:56:26;;;;;;;15.50;11.50;;;;;;;5.72;100.00;101013.72;5222158;28;19924;-65
2023/04/02 00:58:58;;;;;;;17.45;12.65;;;;;;;5.72;100.00;101018.16;5225720;28;20037;-65
2023/04/02 01:01:36;;;;;;;17.88;13.07;;;;;;;5.70;100.00;101023.53;5219195;28;20427;-66
2023/04/02 01:04:26;;;;;;;19.15;13.82;;;;;;;5.69;100.00;101030.63;5221983;28;20036;-65
2023/04/02 01:07:05;;;;;;;19.17;14.13;;;;;;;5.66;100.00;101033.41;5222887;28;20440;-65
2023/04/02 01:09:45;;;;;;;18.67;13.52;;;;;;;5.67;100.00;101037.75;5222603;28;20018;-65
2023/04/02 01:12:49;;;;;;;19.98;14.80;;;;;;;5.67;100.00;101043.06;5222431;28;20021;-65
2023/04/02 01:15:29;;;;;;;20.20;14.80;;;;;;;5.66;100.00;101049.31;5201031;28;20502;-65
2023/04/02 01:18:18;;;;;;;19.55;14.05;;;;;;;5.64;100.00;101050.34;5221755;28;20030;-65
2023/04/02 01:21:40;;;;;;;19.27;14.98;;;;;;;5.64;100.00;101053.81;5221591;28;20048;-65
2023/04/02 01:24:13;;;;;;;18.45;14.15;;;;;;;5.59;100.00;101063.78;5210312;28;20103;-65
2023/04/02 01:26:54;;;;;;;25.80;14.95;;;;;;;5.60;100.00;101067.28;5223677;28;20025;-65
2023/04/02 01:29:57;;;;;;;18.15;13.88;;;;;;;5.62;100.00;101065.41;5220756;28;20120;-65
2023/04/02 01:32:29;;;;;;;17.63;14.00;;;;;;;5.59;100.00;101060.28;5220694;28;20036;-65
2023/04/02 01:35:00;;;;;;;19.65;14.77;;;;;;;5.60;100.00;101067.28;5225770;28;20128;-66
2023/04/02 01:37:37;;;;;;;19.90;14.88;;;;;;;5.59;100.00;101078.81;5225463;28;20026;-66
2023/04/02 01:40:28;;;;;;;19.52;14.57;;;;;;;5.59;100.00;101079.66;5223919;28;20079;-65
2023/04/02 01:43:05;;;;;;;21.63;15.60;;;;;;;5.59;100.00;101087.59;5227123;28;20368;-65
2023/04/02 01:45:37;;;;;;;19.45;15.23;;;;;;;5.55;100.00;101090.50;5235040;28;20060;-65
2023/04/02 01:48:19;;;;;;;21.80;15.70;;;;;;;5.60;100.00;101096.41;5230233;28;20214;-65
2023/04/02 01:50:54;;;;;;;21.10;16.13;;;;;;;5.52;100.00;101110.03;5239877;28;20025;-65
2023/04/02 01:53:29;;;;;;;19.98;14.35;;;;;;;5.47;100.00;101112.91;5235492;28;20017;-65
2023/04/02 01:56:03;;;;;;;18.92;14.18;;;;;;;5.45;100.00;101119.22;5230043;28;20039;-65
2023/04/02 01:58:35;;;;;;;16.60;13.93;;;;;;;5.40;100.00;101126.53;5226247;28;20061;-65
2023/04/02 02:01:14;;;;;;;18.88;14.13;;;;;;;5.37;100.00;101118.75;5236590;28;20128;-65
2023/04/02 02:03:46;;;;;;;18.23;13.50;;;;;;;5.35;100.00;101129.44;5233248;28;20458;-65
2023/04/02 02:06:18;;;;;;;14.43;11.77;;;;;;;5.32;100.00;101124.28;5231952;28;20778;-65
2023/04/02 02:08:58;;;;;;;15.77;12.75;;;;;;;5.29;100.00;101127.06;5224865;28;20111;-65
2023/04/02 02:11:31;;;;;;;16.42;12.57;;;;;;;5.28;100.00;101138.59;5227309;28;20151;-65
2023/04/02 02:14:23;;;;;;;14.43;11.20;;;;;;;5.27;100.00;101136.88;5230407;28;21673;-65
2023/04/02 02:16:58;;;;;;;15.75;11.07;;;;;;;5.22;100.00;101141.56;5224625;28;20037;-65
2023/04/02 02:19:42;;;;;;;15.00;11.45;;;;;;;5.24;100.00;101150.25;5230831;28;20186;-65
2023/04/02 02:22:27;;;;;;;13.93;10.15;;;;;;;5.22;100.00;101152.97;5231352;28;20432;-65
2023/04/02 02:25:01;;;;;;;14.13;9.75;;;;;;;5.17;100.00;101162.91;5224670;28;20156;-66
2023/04/02 02:27:44;;;;;;;;;;;;;;;5.32;100.00;101163.13;5233689;28;20025;-65
2023/04/02 02:30:50;;;;;;;12.30;8.55;;;;;;;5.16;100.00;101176.22;5228110;28;19956;-65
2023/04/02 02:33:31;;;;;;;12.95;8.30;;;;;;;5.10;100.00;101172.06;5212035;28;20566;-65
2023/04/02 02:36:05;;;;;;;11.82;8.88;;;;;;;5.05;100.00;101180.25;5230471;28;20483;-65
2023/04/02 02:38:49;;;;;;;;;;;;;;;5.16;100.00;101185.03;5231306;28;20499;-65
2023/04/02 02:41:25;;;;;;;10.27;8.30;;;;;;;5.04;100.00;101190.88;5228032;28;19921;-65
2023/04/02 02:44:03;;;;;;;8.88;6.97;;;;;;;5.01;100.00;101189.25;5227967;28;20025;-65
2023/04/02 02:46:52;;;;;;;10.57;7.72;;;;;;;5.02;100.00;101196.25;5227551;28;20029;-66
2023/04/02 02:49:30;;;;;;;10.68;6.90;;;;;;;5.01;100.00;101209.56;5224173;28;20154;-65
2023/04/02 02:52:07;;;;;;;8.55;6.93;;;;;;;4.99;100.00;101209.63;5227704;28;20040;-65
2023/04/02 02:55:01;;;;;;;10.13;6.80;;;;;;;4.99;100.00;101209.63;5225881;28;20035;-65
2023/04/02 02:57:41;;;;;;;9.43;6.80;;;;;;;4.99;100.00;101222.00;5227577;28;20632;-65
2023/04/02 03:00:15;;;;;;;9.90;7.72;;;;;;;4.98;100.00;101225.56;5225981;28;20411;-65
2023/04/02 03:02:48;;;;;;;11.82;7.88;;;;;;;5.01;100.00;101221.00;5225349;28;20034;-65
2023/04/02 03:05:22;;;;;;;13.35;8.95;;;;;;;5.00;100.00;101229.00;5230138;28;20041;-65
2023/04/02 03:07:55;;;;;;;;;;;;;;;4.98;100.00;101229.06;5225085;28;20029;-65
2023/04/02 03:10:36;;;;;;;11.73;8.77;;;;;;;4.98;100.00;101237.00;5225816;28;20051;-66
2023/04/02 03:13:40;;;;;;;12.52;9.43;;;;;;;4.99;100.00;101241.38;5224234;28;20036;-65
2023/04/02 03:16:31;;;;;;;12.93;9.93;;;;;;;4.98;100.00;101252.84;5225309;28;20032;-65
2023/04/02 03:19:37;;;;;;;12.73;10.38;;;;;;;5.00;100.00;101253.63;5223809;28;20027;-65
2023/04/02 03:22:18;;;;;;;;;;;;;;;5.05;100.00;101264.03;5221822;28;20550;-65
2023/04/02 03:25:02;;;;;;;14.63;11.02;;;;;;;4.94;100.00;101269.78;5227179;28;20117;-66
2023/04/02 03:27:38;;;;;;;15.17;12.07;;;;;;;4.91;100.00;101283.19;5221533;28;20137;-66
2023/04/02 03:30:31;;;;;;;14.80;11.45;;;;;;;4.92;100.00;101290.16;5223332;28;20287;-66
2023/04/02 03:33:13;;;;;;;14.60;11.65;;;;;;;4.84;100.00;101294.94;5225342;28;20028;-65
2023/04/02 03:36:02;;;;;;;14.68;11.00;;;;;;;4.86;100.00;101301.03;5220836;28;20026;-66
2023/04/02 03:38:39;;;;;;;15.30;11.98;;;;;;;4.81;100.00;101309.16;5226330;28;20035;-65
2023/04/02 03:41:23;;;;;;;14.82;11.48;;;;;;;4.79;100.00;101315.44;5222568;28;20546;-66
2023/04/02 03:44:02;;;;;;;16.80;11.13;;;;;;;4.78;100.00;101319.03;5221084;28;20040;-66
2023/04/02 03:46:40;;;;;;;15.93;11.18;;;;;;;4.74;100.00;101322.72;5221337;28;20029;-66
2023/04/02 03:49:22;;;;;;;15.52;11.60;;;;;;;4.70;100.00;101322.00;5219215;28;20026;-65
2023/04/02 03:52:12;;;;;;;15.55;10.70;;;;;;;4.71;100.00;101324.56;5220374;28;20036;-66
2023/04/02 03:54:44;;;;;;;14.00;9.90;;;;;;;4.63;100.00;101336.41;5222190;28;20095;-66
2023/04/02 03:57:59;;;;;;;14.32;10.18;;;;;;;4.61;100.00;101347.03;5219975;28;20025;-66
2023/04/02 04:00:38;;;;;;;14.77;9.63;;;;;;;4.56;100.00;101342.88;5217518;28;20065;-65
2023/04/02 04:03:38;;;;;;;13.15;9.82;;;;;;;4.56;100.00;101353.47;5222733;28;20685;-66
2023/04/02 04:06:26;;;;;;;14.07;9.63;;;;;;;4.52;100.00;101363.28;5229815;28;20081;-66
2023/04/02 04:09:00;;;;;;;13.48;10.07;;;;;;;4.51;100.00;101359.81;5221486;28;20241;-66
2023/04/02 04:11:34;;;;;;;15.50;10.48;;;;;;;4.47;100.00;101358.22;5228592;28;20022;-66
2023/04/02 04:14:11;;;;;;;;;;;;;;;4.55;100.00;101365.81;5225792;28;20053;-66
2023/04/02 04:16:54;;;;;;;14.15;10.60;;;;;;;4.46;100.00;101382.91;5221462;28;19939;-66
2023/04/02 04:19:44;;;;;;;15.55;11.10;;;;;;;4.47;100.00;101384.66;5219635;28;20041;-65
2023/04/02 04:22:32;;;;;;;16.35;11.00;;;;;;;4.47;100.00;101386.44;5231269;28;20067;-66
2023/04/02 04:25:21;;;;;;;16.55;12.82;;;;;;;4.49;100.00;101396.00;5223516;28;20018;-66
2023/04/02 04:28:06;;;;;;;16.98;11.70;;;;;;;4.46;100.00;101398.75;5230580;28;20706;-66
2023/04/02 04:30:58;;;;;;;16.95;12.50;;;;;;;4.48;100.00;101410.13;5234913;28;20548;-66
2023/04/02 04:33:40;;;;;;;17.02;12.15;;;;;;;4.47;100.00;101412.84;5226439;28;20423;-66
2023/04/02 04:36:32;;;;;;;15.55;12.02;;;;;;;4.49;100.00;101418.94;5226488;28;20028;-66
2023/04/02 04:39:13;;;;;;;15.15;11.05;;;;;;;4.46;100.00;101425.19;5232916;28;20026;-66
2023/04/02 04:41:47;;;;;;;15.02;10.75;;;;;;;4.46;100.00;101441.03;5235022;28;20063;-66
2023/04/02 04:44:43;;;;;;;12.55;10.00;;;;;;;4.43;100.00;101442.94;5227149;28;20036;-66
2023/04/02 04:47:29;;;;;;;14.15;10.50;;;;;;;4.37;100.00;101451.97;5227087;28;20039;-66
2023/04/02 04:50:27;;;;;;;13.73;8.70;;;;;;;4.38;100.00;101456.34;5224668;28;20029;-66
2023/04/02 04:53:05;;;;;;;14.23;8.35;;;;;;;4.30;100.00;101461.94;5223844;28;20083;-66
2023/04/02 04:55:43;;;;;;;12.50;9.25;;;;;;;4.28;100.00;101463.78;5227276;28;20036;-66
2023/04/02 04:58:32;;;;;;;9.88;7.47;;;;;;;4.28;100.00;101471.72;5221761;28;20029;-66
2023/04/02 05:01:12;;;;;;;11.73;8.63;;;;;;;4.25;100.00;101470.97;5225936;28;20049;-66
2023/04/02 05:04:19;;;;;;;11.57;7.95;;;;;;;4.22;100.00;101474.63;5224569;28;20038;-66
2023/04/02 05:07:08;;;;;;;11.38;7.75;;;;;;;4.19;100.00;101480.00;5224526;28;20531;-66
2023/04/02 05:09:41;;;;;;;10.57;7.32;;;;;;;4.09;100.00;101489.22;5230391;28;20038;-66
2023/04/02 05:12:19;;;;;;;11.80;8.27;;;;;;;4.09;100.00;101492.72;5231386;28;20045;-66
2023/04/02 05:14:56;;;;;;;12.35;8.88;;;;;;;4.06;100.00;101506.03;5225892;28;20064;-66
2023/04/02 05:17:34;;;;;;;11.93;8.70;;;;;;;4.06;100.00;101516.59;5226786;28;21338;-66
2023/04/02 05:20:35;;;;;;;10.80;8.27;;;;;;;4.06;100.00;101513.09;5234630;28;20031;-66
2023/04/02 05:23:27;;;;;;;13.90;9.10;;;;;;;4.03;100.00;101502.66;5228067;28;20244;-66
2023/04/02 05:26:08;;;;;;;12.73;8.52;;;;;;;4.03;100.00;101515.88;5229895;28;20113;-66
2023/04/02 05:28:47;;;;;;;12.63;8.35;;;;;;;4.01;100.00;101515.94;5232313;28;20026;-66
2023/04/02 05:31:26;;;;;;;13.90;9.38;;;;;;;4.03;100.00;101526.44;5233620;28;20040;-66
2023/04/02 05:33:58;;;;;;;13.73;8.77;;;;;;;4.00;100.00;101527.38;5222422;28;20057;-66
2023/04/02 05:36:30;;;;;;;11.18;8.32;;;;;;;4.04;100.00;101538.69;5228823;28;20047;-66
2023/04/02 05:39:01;;;;;;;10.27;7.65;;;;;;;4.01;100.00;101531.75;5235178;28;20025;-66
2023/04/02 05:41:42;;;;;;;10.68;7.60;;;;;;;4.02;100.00;101540.53;5229629;28;20060;-65
2023/04/02 05:44:28;;;;;;;13.65;8.18;;;;;;;3.99;100.00;101544.16;5223976;28;20445;-66
2023/04/02 05:47:05;;;;;;;12.60;8.35;;;;;;;4.02;100.00;101544.03;5230910;28;20087;-66
2023/04/02 05:50:04;;;;;;;14.15;9.15;;;;;;;4.01;100.00;101550.25;5225437;28;20040;-66
2023/04/02 05:52:41;;;;;;;14.75;8.98;;;;;;;3.98;100.00;101550.34;5226334;28;20119;-66
2023/04/02 05:55:16;;;;;;;13.73;8.90;;;;;;;3.98;100.00;101565.34;5226610;28;20541;-66
2023/04/02 05:57:55;;;;;;;11.60;8.82;;;;;;;4.01;100.00;101571.38;5225636;28;20139;-66
2023/04/02 06:00:48;;;;;;;15.75;9.80;;;;;;;4.01;100.00;101583.69;5221787;28;20049;-67
2023/04/02 06:03:45;;;;;;;14.10;9.80;;;;;;;4.04;100.00;101594.16;5226879;28;20138;-67
2023/04/02 06:06:27;;;;;;;14.55;10.02;;;;;;;4.04;100.00;101592.38;5229762;28;20037;-66
2023/04/02 06:09:07;;;;;;;14.45;9.98;;;;;;;4.02;100.00;101596.00;5222379;28;20116;-66
2023/04/02 06:11:45;;;;;;;14.93;10.43;;;;;;;3.99;100.00;101604.00;5223223;28;20072;-66
2023/04/02 06:14:16;;;;;;;14.43;10.60;;;;;;;4.00;100.00;101601.31;5234124;28;20580;-66
2023/04/02 06:16:48;;;;;;;14.20;10.57;;;;;;;4.02;100.00;101615.31;5231296;28;20123;-66
2023/04/02 06:19:24;;;;;;;14.38;10.70;;;;;;;4.03;100.00;101619.69;5232024;28;20483;-66
2023/04/02 06:22:17;;;;;;;17.13;10.93;;;;;;;4.02;100.00;101623.25;5230960;28;20704;-66
2023/04/02 06:24:56;;;;;;;17.33;11.02;;;;;;;3.99;100.00;101636.59;5226701;28;20038;-66
2023/04/02 06:27:28;;;;;;;12.95;9.80;;;;;;;3.93;100.00;101636.78;5231646;28;20030;-66
2023/04/02 06:30:04;;;;;;;15.68;9.70;;;;;;;3.88;100.00;101633.47;5225737;28;20174;-66
2023/04/02 06:32:35;;;;;;;14.48;10.13;;;;;;;3.88;100.00;101646.66;5234274;28;20041;-66
2023/04/02 06:35:14;;;;;;;12.60;9.48;;;;;;;3.87;100.00;101652.84;5229073;28;20033;-66
2023/04/02 06:37:50;;;;;;;14.90;10.30;;;;;;;3.82;100.00;101645.09;5232975;28;20115;-66
2023/04/02 06:40:35;;;;;;;13.07;8.90;;;;;;;3.83;100.00;101656.50;5231901;28;20068;-66
2023/04/02 06:43:34;;;;;;;14.20;8.95;;;;;;;3.84;100.00;101664.38;5230109;28;20038;-66
2023/04/02 06:46:21;;;;;;;13.73;8.73;;;;;;;3.83;100.00;101678.47;5231045;28;20059;-66
2023/04/02 06:49:00;;;;;;;11.77;8.10;;;;;;;3.77;100.00;101680.50;5225382;28;20029;-66
2023/04/02 06:51:35;;;;;;;11.15;8.20;;;;;;;3.79;100.00;101686.56;5223207;28;20458;-66
2023/04/02 06:54:13;;;;;;;14.23;8.00;;;;;;;3.76;100.00;101695.47;5229383;28;20029;-66
2023/04/02 06:56:50;;;;;;;11.45;7.05;;;;;;;3.75;100.00;101692.88;5232553;28;20033;-66
2023/04/02 06:59:22;;;;;;;12.82;7.25;;;;;;;3.75;100.00;101704.28;5224305;28;20026;-66
2023/04/02 07:01:59;;;;;;;15.27;7.10;;;;;;;3.78;100.00;101704.19;5220623;28;20526;-65
2023/04/02 07:04:32;;;;;;;11.23;6.85;;;;;;;3.77;100.00;101713.00;5222030;28;20038;-66
2023/04/02 07:07:03;;;;;;;11.50;6.65;;;;;;;3.81;100.00;101713.78;5225700;28;20079;-66
2023/04/02 07:09:35;;;;;;;11.57;7.18;;;;;;;3.83;100.00;101726.00;5217985;28;20033;-66
2023/04/02 07:12:12;;;;;;;12.50;6.28;;;;;;;3.85;100.00;101739.16;5221696;28;20029;-66
2023/04/02 07:14:46;;;;;;;12.63;7.85;;;;;;;3.84;100.00;101740.94;5219409;28;20041;-66
2023/04/02 07:17:19;;;;;;;9.77;6.90;;;;;;;3.91;100.00;101746.84;5220621;28;20749;-66
2023/04/02 07:19:50;;;;;;;14.52;6.90;;;;;;;3.91;100.00;101757.41;5220887;28;20033;-66
2023/04/02 07:22:22;;;;;;;9.68;6.22;;;;;;;3.96;100.00;101757.28;5224830;28;20083;-66
2023/04/02 07:24:53;;;;;;;10.32;5.50;;;;;;;3.98;100.00;101764.22;5218285;28;20383;-66
2023/04/02 07:27:25;;;;;;;9.27;5.93;;;;;;;4.05;100.00;101775.44;5220030;28;20057;-66
2023/04/02 07:29:56;;;;;;;9.70;5.47;;;;;;;4.02;100.00;101775.53;5220280;28;20033;-66
2023/04/02 07:32:28;;;;;;;8.50;4.90;;;;;;;4.01;100.00;101779.09;5219049;28;20257;-66
2023/04/02 07:34:59;;;;;;;8.93;4.90;;;;;;;4.02;100.00;101788.75;5218825;28;20029;-66
2023/04/02 07:37:30;;;;;;;5.70;3.80;;;;;;;3.98;100.00;101795.06;5222509;28;20021;-66
2023/04/02 07:40:05;;;;;;;8.63;4.60;;;;;;;3.95;100.00;101797.78;5222045;28;20056;-65
2023/04/02 07:42:36;;;;;;;9.65;4.28;;;;;;;3.91;100.00;101799.66;5224727;28;20112;-65
2023/04/02 07:45:08;;;;;;;8.38;4.00;;;;;;;3.88;100.00;101799.78;5224367;28;20640;-65
2023/04/02 07:47:40;;;;;;;8.25;3.53;;;;;;;3.90;100.00;101795.31;5227327;28;20033;-65
2023/04/02 07:50:12;;;;;;;7.35;3.60;;;;;;;3.89;100.00;101801.47;5227048;28;20037;-66
2023/04/02 07:52:43;;;;;;;6.90;3.72;;;;;;;3.91;100.00;101799.66;5230864;28;20419;-65
2023/04/02 07:55:15;;;;;;;9.70;3.80;;;;;;;3.91;100.00;101808.47;5224825;28;20487;-65
2023/04/02 07:57:53;;;;;;;10.10;3.75;;;;;;;3.92;100.00;101809.31;5219355;28;20062;-65
2023/04/02 08:00:25;;;;;;;7.53;3.47;;;;;;;3.92;100.00;101825.16;5223419;28;20123;-65
2023/04/02 08:02:57;;;;;;;5.05;3.17;;;;;;;3.96;100.00;101825.94;5221765;28;20098;-65
2023/04/02 08:05:28;;;;;;;6.95;4.00;;;;;;;3.92;100.00;101830.44;5230004;28;20038;-65
2023/04/02 08:08:00;;;;;;;6.38;2.97;;;;;;;3.88;100.00;101829.66;5224897;28;20104;-65
2023/04/02 08:10:31;;;;;;;6.65;2.95;;;;;;;3.84;100.00;101841.25;5225745;28;20044;-65
2023/04/02 08:13:03;;;;;;;6.70;3.00;;;;;;;3.79;100.00;101844.94;5219806;28;20080;-65
2023/04/02 08:15:34;;;;;;;7.13;2.85;;;;;;;3.78;100.00;101844.09;5226058;28;20033;-65
2023/04/02 08:18:05;;;;;;;6.55;3.35;;;;;;;3.80;100.00;101852.81;5231521;28;20498;-65
2023/04/02 08:20:37;;;;;;;7.38;4.00;;;;;;;3.80;100.00;101846.69;5232536;28;20042;-65
2023/04/02 08:23:16;;;;;;;5.93;3.15;;;;;;;3.84;100.00;101849.16;5231177;28;20059;-65
2023/04/02 08:25:48;;;;;;;6.68;3.78;;;;;;;3.98;100.00;101861.91;5221083;28;20476;-65
2023/04/02 08:28:21;;;;;;;5.40;3.20;;;;;;;4.02;100.00;101860.91;5223511;28;20225;-65
2023/04/02 08:30:52;;;;;;;6.78;3.60;;;;;;;4.14;100.00;101867.53;5221895;28;20040;-65
2023/04/02 08:33:24;;;;;;;9.68;3.13;;;;;;;4.18;100.00;101873.59;5223913;28;20053;-65
2023/04/02 08:35:56;;;;;;;8.00;2.65;;;;;;;4.17;100.00;101882.44;5224027;28;20041;-65
2023/04/02 08:38:27;;;;;;;6.75;2.65;;;;;;;4.16;100.00;101886.00;5227127;28;20039;-65
2023/04/02 08:41:01;;;;;;;8.80;3.17;;;;;;;4.20;100.00;101899.06;5223188;28;20508;-65
2023/04/02 08:44:01;;;;;;;6.88;2.58;;;;;;;4.28;100.00;101906.75;5229942;28;20068;-65
2023/04/02 08:47:02;;;;;;;6.68;2.55;;;;;;;4.23;100.00;101909.50;5226286;28;20124;-65
2023/04/02 08:49:41;;;;;;;5.85;2.72;;;;;;;4.21;100.00;101915.78;5227113;28;20438;-65
2023/04/02 08:52:25;;;;;;;7.65;2.67;;;;;;;4.23;100.00;101913.94;5229888;28;20443;-65
2023/04/02 08:54:59;;;;;;;;;;;;;;;4.32;100.00;101921.56;5232426;28;20741;-65
2023/04/02 08:57:39;;;;;;;6.75;2.60;;;;;;;4.28;100.00;101927.88;5232959;28;20019;-65
2023/04/02 09:00:14;;;;;;;5.93;2.75;;;;;;;4.29;100.00;101937.50;5231651;28;20198;-65
2023/04/02 09:02:56;;;;;;;8.90;2.88;;;;;;;4.29;100.00;101945.44;5230016;28;20041;-65
2023/04/02 09:05:32;;;;;;;5.55;2.60;;;;;;;4.29;100.00;101956.84;5225696;28;20037;-65
2023/04/02 09:08:12;;;;;;;7.28;2.63;;;;;;;4.30;100.00;101955.09;5224044;28;20028;-65
2023/04/02 09:10:53;;;;;;;5.03;2.30;;;;;;;4.35;100.00;101952.28;5228203;28;20033;-65
2023/04/02 09:13:27;;;;;;;5.68;2.45;;;;;;;4.37;100.00;101953.97;5225845;28;20034;-65
2023/04/02 09:16:07;;;;;;;4.68;2.08;;;;;;;4.39;100.00;101962.72;5232261;28;20034;-67
2023/04/02 09:18:40;;;;;;;6.03;2.65;;;;;;;4.38;100.00;101961.00;5230933;28;20127;-65
2023/04/02 09:21:21;;;;;;;6.80;2.30;;;;;;;4.36;100.00;101965.47;5232411;28;20021;-65
2023/04/02 09:23:53;;;;;;;7.93;2.75;;;;;;;4.43;100.00;101974.94;5225930;28;20053;-65
2023/04/02 09:26:30;;;;;;;5.10;2.40;;;;;;;4.48;100.00;101977.41;5234070;28;20056;-65
2023/04/02 09:29:11;;;;;;;4.82;2.10;;;;;;;4.46;100.00;101993.31;5232557;28;20041;-65
2023/04/02 09:31:47;;;;;;;6.40;2.60;;;;;;;4.51;100.00;101993.19;5227268;28;20582;-65
2023/04/02 09:34:33;;;;;;;6.95;2.53;;;;;;;4.54;100.00;101998.34;5221485;28;20477;-65
2023/04/02 09:37:17;;;;;;;5.18;2.47;;;;;;;4.55;100.00;102002.72;5229513;28;20220;-65
2023/04/02 09:39:49;;;;;;;7.95;2.35;;;;;;;4.51;100.00;102007.25;5224506;28;20021;-64
2023/04/02 09:42:32;;;;;;;6.60;2.25;;;;;;;4.58;100.00;102001.75;5231214;28;20392;-65
2023/04/02 09:45:21;;;;;;;5.33;2.30;;;;;;;4.59;100.00;102012.28;5227401;28;21318;-65
2023/04/02 09:47:54;;;;;;;4.53;2.13;;;;;;;4.60;100.00;102011.38;5223797;28;20033;-65
2023/04/02 09:50:30;;;;;;;4.57;2.30;;;;;;;4.65;100.00;102019.16;5236099;28;20036;-66
2023/04/02 09:53:29;;;;;;;6.45;2.28;;;;;;;4.68;100.00;102016.41;5233139;28;20061;-65
2023/04/02 09:56:25;;;;;;;6.45;2.63;;;;;;;4.71;100.00;102026.88;5219502;28;20083;-65
2023/04/02 09:59:11;;;;;;;4.70;2.30;;;;;;;4.67;100.00;102028.75;5227811;28;20052;-65
2023/04/02 10:01:48;;;;;;;5.07;2.33;;;;;;;4.73;100.00;102032.97;5228461;28;20091;-65
2023/04/02 10:04:29;;;;;;;7.55;2.60;;;;;;;4.72;100.00;102044.47;5233157;28;20037;-65
2023/04/02 10:07:02;;;;;;;6.03;2.60;;;;;;;4.73;100.00;102043.53;5225771;28;20045;-65
2023/04/02 10:09:36;;;;;;;5.95;2.20;;;;;;;4.68;100.00;102048.13;5231425;28;20072;-65
2023/04/02 10:12:13;;;;;;;7.05;3.25;;;;;;;4.69;100.00;102049.84;5231324;28;20064;-65
2023/04/02 10:14:48;;;;;;;4.82;2.20;;;;;;;4.64;100.00;102050.00;5230153;28;20032;-65
2023/04/02 10:17:26;;;;;;;4.30;2.30;;;;;;;4.67;100.00;102062.25;5228119;28;20021;-65
2023/04/02 10:20:05;;;;;;;5.50;2.30;;;;;;;4.64;100.00;102051.78;5232576;28;20029;-66
2023/04/02 10:22:36;;;;;;;6.43;2.97;;;;;;;4.63;100.00;102063.28;5227935;28;20666;-66
2023/04/02 10:25:15;;;;;;;6.53;2.45;;;;;;;4.68;100.00;102058.72;5234196;28;20272;-65
2023/04/02 10:28:17;;;;;;;6.03;2.50;;;;;;;4.75;100.00;102073.44;5230208;28;21042;-65
2023/04/02 10:31:10;;;;;;;4.82;2.20;;;;;;;4.69;100.00;102074.50;5231558;28;20030;-65
2023/04/02 10:33:49;;;;;;;5.82;2.42;;;;;;;4.70;100.00;102088.59;5233060;28;20112;-65
2023/04/02 10:36:47;;;;;;;6.43;2.45;;;;;;;4.79;100.00;102084.78;5229810;28;20116;-65
2023/04/02 10:39:37;;;;;;;5.68;2.10;;;;;;;4.79;100.00;102101.50;5222439;28;20037;-65
2023/04/02 10:42:15;;;;;;;6.03;2.40;;;;;;;4.75;100.00;102104.31;5235673;28;20120;-66
2023/04/02 10:45:03;;;;;;;6.80;2.53;;;;;;;4.69;100.00;102102.72;5237897;28;20038;-65
2023/04/02 10:47:46;;;;;;;4.25;2.45;;;;;;;4.77;100.00;102102.47;5249290;28;20385;-65
2023/04/02 10:50:55;;;;;;;8.38;2.40;;;;;;;4.80;100.00;102112.97;5232525;28;20024;-65
2023/04/02 10:53:48;;;;;;;5.47;2.40;;;;;;;4.83;100.00;102103.16;5227315;28;20132;-66
2023/04/02 10:56:21;;;;;;;5.15;2.25;;;;;;;4.85;100.00;102111.91;5227142;28;20030;-66
2023/04/02 10:59:05;;;;;;;5.07;2.13;;;;;;;4.92;100.00;102120.50;5223043;28;20025;-66
2023/04/02 11:01:40;;;;;;;4.80;2.43;;;;;;;4.90;100.00;102109.97;5230479;28;20041;-65
2023/04/02 11:04:26;;;;;;;4.88;2.35;;;;;;;4.98;100.00;102116.78;5231039;28;20021;-66
2023/04/02 11:07:03;;;;;;;4.22;2.45;;;;;;;4.97;100.00;102120.38;5225767;28;20026;-66
2023/04/02 11:09:41;;;;;;;4.68;2.58;;;;;;;5.02;100.00;102131.63;5234486;28;20030;-65
2023/04/02 11:12:38;;;;;;;5.78;2.72;;;;;;;5.09;100.00;102134.03;5234026;28;20116;-66
2023/04/02 11:15:16;;;;;;;5.00;2.20;;;;;;;5.26;100.00;102140.56;5232792;28;20035;-66
2023/04/02 11:17:47;;;;;;;5.55;2.08;;;;;;;5.34;100.00;102143.81;5228437;28;20434;-66
2023/04/02 11:20:46;;;;;;;5.72;3.00;;;;;;;5.52;100.00;102142.31;5232949;28;20079;-66
2023/04/02 11:23:19;;;;;;;5.95;2.22;;;;;;;5.49;100.00;102150.38;5238176;28;20121;-66
2023/04/02 11:25:51;;;;;;;6.38;2.20;;;;;;;5.52;100.00;102152.91;5231281;28;20029;-66
2023/04/02 11:28:29;;;;;;;5.40;2.47;;;;;;;5.62;100.00;102156.09;5221404;28;20030;-66
2023/04/02 11:31:00;;;;;;;6.25;2.67;;;;;;;5.71;100.00;102158.41;5237862;28;20570;-66
2023/04/02 11:33:41;;;;;;;6.00;2.30;;;;;;;5.84;100.00;102165.03;5240684;28;20035;-66
2023/04/02 11:36:49;;;;;;;5.65;2.50;;;;;;;5.90;100.00;102161.28;5238484;28;20021;-66
2023/04/02 11:40:14;;;;;;;5.47;3.10;;;;;;;5.96;100.00;102169.03;5229448;28;20496;-66
2023/04/02 11:42:48;;;;;;;5.03;2.03;;;;;;;5.94;100.00;102175.28;5186289;28;20056;-66
2023/04/02 11:45:19;;;;;;;5.97;2.13;;;;;;;5.93;100.00;102169.13;5192216;28;20033;-66
2023/04/02 11:48:00;;;;;;;4.35;2.00;;;;;;;5.95;100.00;102177.03;5236286;28;20033;-65
2023/04/02 11:50:36;;;;;;;6.90;2.20;;;;;;;5.95;100.00;102174.38;5218217;28;20369;-65
2023/04/02 11:53:11;;;;;;;4.25;2.10;;;;;;;6.01;100.00;102169.75;5230969;28;20033;-66
2023/04/02 11:55:44;;;;;;;5.28;2.25;;;;;;;6.00;100.00;102183.03;5235484;28;20539;-66
2023/04/02 11:58:51;;;;;;;5.85;2.22;;;;;;;6.08;100.00;102195.13;5230758;28;20033;-66
2023/04/02 12:02:04;;;;;;;6.53;2.72;;;;;;;6.15;100.00;102197.53;5229129;28;20181;-66
2023/04/02 12:04:55;;;;;;;6.50;2.13;;;;;;;6.16;100.00;102202.78;5233547;28;20079;-66
2023/04/02 12:07:45;;;;;;;5.75;1.90;;;;;;;6.17;100.00;102206.28;5246204;28;20489;-66
2023/04/02 12:10:23;;;;;;;3.97;2.05;;;;;;;6.11;100.00;102220.63;5236252;28;20080;-66
2023/04/02 12:12:54;;;;;;;4.97;2.22;;;;;;;6.14;100.00;102217.88;5222788;28;20254;-66
2023/04/02 12:15:32;;;;;;;5.65;2.20;;;;;;;6.08;100.00;102226.91;5231145;28;20025;-66
2023/04/02 12:18:20;;;;;;;6.95;1.95;;;;;;;6.09;100.00;102222.47;5232252;28;20203;-65
2023/04/02 12:20:56;;;;;;;4.13;2.25;;;;;;;6.05;100.00;102228.78;5228989;28;20057;-65